Terminal Aerodrome Forecast
Issued by NWS

Home | Current Version | Previous Version | Text Only | Print | Product List | Glossary On
Versions: 1 2 3 4 5 6 7 8 9 10 11 12 13 14 15 16 17 18 19 20 21 22 23 24 25 26 27 28 29 30 31 32 33 34 35 36 37 38 39 40 41 42 43 44 45 46 47 48 49 50
485
FTUS41 KCTP 271742
TAFJST
TAF
KJST 271742Z 2718/2818 24012G20KT P6SM SCT025 BKN050
     FM280000 23005KT P6SM OVC050
     FM280600 20004KT P6SM -SHRA OVC025
     FM280800 20004KT 2SM -SHRA BR OVC003
     FM281700 28005KT 2SM -SHRA BR OVC007=

USA.gov is the U.S. government's official web portal to all federal, state and local government web resources and services.